Airfield :
LOGIN :

Register | Disclaimer

   EN    FR    IT 

 










Legend :    VFR   Marginal VFR   IFR   Intensive IFR   Very Intensive IFR
Visi :
Ceiling :
>= 8 km
>= 3000ft
5 to 8 km
1000 to 3000 ft
1500m to 5 km
500 to 1000 ft
800 to 1500m
200 to 500 ft
< 800m
< 200 ft
Symbols :   Thunderstorms  Fog  Heavy snow  Heavy precipitations  Wind > 20 kt
SIGMETs :     Misc.  Thunderstorms  Icing  Turbulence  Mountain Waves  Volcanic Ashes






- Airport Elevation : 502 ft
- IATA code : ORK


EICK - Cork

CURRENT METAR :
  • 170500Z 33009KT 9999 SCT020 BKN040 03/01 Q1012 NOSIG

EXPIRED METARs :
  • 170430Z 34007KT 9999 BKN030 BKN060 04/01 Q1011 NOSIG
  • 170400Z 35006KT 9999 BKN030 BKN060 04/01 Q1011 NOSIG
  • 170330Z 32009KT 9999 BKN040 03/02 Q1011 NOSIG
  • 170300Z 31008KT 9999 BKN040 03/02 Q1011 NOSIG
  • 170230Z 32009KT 9999 BKN040 03/01 Q1011 NOSIG

TAF TAF EICK
Valid from the 17 at 06:00 until the 18 at 06:00 UTC


170500Z 1706/1806 33005KT 9999 FEW020 BKN040
PROB30
TEMPO 1706/1708 3000 BR
BECMG 1709/1711 36012KT
BECMG 1800/1802 33005KT
TEMPO 1800/1806 3000 BR



MET'MAP, your aeronautical weather chart ! - Copyright ORBIFLY December 2007 - Disclaimer

ORBIFLY MET'MAP TEAM :

Programming & Development : Alexandra Zaïnal
Concept & Development : Baudouin d'Aumeries
Co-Development & Prog : Marc-Olivier Méhu
Technical & hardware support : Manuel Goepfert

Contact : metmap@orbifly.com




SOURCES & CREDITS :

   NOAA